createdAt,value
2018-01-26T00:00:08.638Z,48.80
2018-01-26T00:02:35.118Z,48.90
2018-01-26T00:05:01.822Z,49.00
2018-01-26T00:07:28.430Z,48.90
2018-01-26T00:09:55.063Z,48.70
2018-01-26T00:12:21.668Z,48.70
2018-01-26T00:14:48.291Z,48.80
2018-01-26T00:17:14.922Z,49.50
2018-01-26T00:19:41.515Z,48.20
2018-01-26T00:22:08.196Z,48.50
2018-01-26T00:24:35.446Z,48.60
2018-01-26T00:27:02.048Z,48.70
2018-01-26T00:29:28.725Z,48.80
2018-01-26T00:31:55.357Z,48.50
2018-01-26T00:34:21.946Z,48.40
2018-01-26T00:36:48.538Z,49.50
2018-01-26T00:39:15.673Z,48.80
2018-01-26T00:41:42.311Z,48.70
2018-01-26T00:44:08.902Z,48.60
2018-01-26T00:46:35.498Z,48.70
2018-01-26T00:49:02.370Z,48.30
2018-01-26T00:51:29.056Z,48.20
2018-01-26T00:53:55.667Z,47.60
2018-01-26T00:56:22.250Z,47.70
2018-01-26T00:58:48.884Z,47.80
2018-01-26T01:01:15.522Z,47.60
2018-01-26T01:03:42.143Z,47.60
2018-01-26T01:06:08.710Z,47.80
2018-01-26T01:08:35.350Z,47.80
2018-01-26T01:11:01.931Z,47.80
2018-01-26T01:13:28.611Z,47.90
2018-01-26T01:15:55.285Z,47.60
2018-01-26T01:18:21.879Z,47.50
2018-01-26T01:20:48.874Z,47.50
2018-01-26T01:23:15.498Z,46.90
2018-01-26T01:25:42.194Z,46.60
2018-01-26T01:28:09.545Z,46.60
2018-01-26T01:30:36.923Z,46.80
2018-01-26T01:33:03.554Z,46.60
2018-01-26T01:35:30.898Z,46.90
2018-01-26T01:37:57.535Z,46.80
2018-01-26T01:40:24.343Z,46.80
2018-01-26T01:42:51.017Z,47.00
2018-01-26T01:45:17.618Z,47.10
2018-01-26T01:47:44.219Z,47.10
2018-01-26T01:50:10.899Z,47.30
2018-01-26T01:52:37.495Z,47.50
2018-01-26T01:55:04.074Z,47.00
2018-01-26T01:57:30.697Z,47.10
2018-01-26T01:59:57.307Z,47.20
2018-01-26T02:02:23.906Z,47.30
2018-01-26T02:04:51.362Z,47.40
2018-01-26T02:07:17.949Z,47.30
2018-01-26T02:09:44.522Z,47.40
2018-01-26T02:12:11.219Z,47.70
2018-01-26T02:14:38.286Z,47.50
2018-01-26T02:17:05.583Z,47.40
2018-01-26T02:19:32.341Z,47.40
2018-01-26T02:21:58.903Z,47.40
2018-01-26T02:24:25.491Z,47.40
2018-01-26T02:26:52.113Z,47.70
2018-01-26T02:29:18.726Z,47.60
2018-01-26T02:31:45.389Z,47.60
2018-01-26T02:34:12.723Z,47.30
2018-01-26T02:36:39.321Z,47.20
2018-01-26T02:39:06.099Z,47.30
2018-01-26T02:41:32.671Z,47.50
2018-01-26T02:44:00.009Z,47.90
2018-01-26T02:46:26.655Z,47.80
2018-01-26T02:48:53.994Z,48.00
2018-01-26T02:51:20.574Z,47.90
2018-01-26T02:53:47.163Z,48.20
2018-01-26T02:56:13.747Z,47.90
2018-01-26T02:58:40.345Z,47.80
2018-01-26T03:01:06.934Z,47.90
2018-01-26T03:03:33.546Z,48.20
2018-01-26T03:06:00.217Z,48.20
2018-01-26T03:08:26.818Z,48.20
2018-01-26T03:10:53.454Z,48.20
2018-01-26T03:13:20.790Z,47.90
2018-01-26T03:15:47.465Z,47.80
2018-01-26T03:18:14.154Z,47.80
2018-01-26T03:20:40.733Z,47.90
2018-01-26T03:23:07.338Z,47.90
2018-01-26T03:25:33.910Z,47.80
2018-01-26T03:28:00.542Z,47.80
2018-01-26T03:30:27.145Z,48.00
2018-01-26T03:32:53.899Z,48.00
2018-01-26T03:35:21.198Z,48.20
2018-01-26T03:37:47.766Z,48.20
2018-01-26T03:40:14.585Z,48.40
2018-01-26T03:42:41.180Z,48.40
2018-01-26T03:45:08.587Z,47.80
2018-01-26T03:47:35.221Z,47.50
2018-01-26T03:50:01.786Z,47.50
2018-01-26T03:52:35.284Z,48.30
2018-01-26T03:55:01.842Z,48.30
2018-01-26T03:57:28.454Z,48.30
2018-01-26T03:59:55.076Z,48.20
2018-01-26T04:02:21.690Z,48.40
2018-01-26T04:04:48.289Z,48.70
2018-01-26T04:07:15.698Z,49.00
2018-01-26T04:09:43.030Z,48.90
2018-01-26T04:12:09.600Z,48.80
2018-01-26T04:14:36.210Z,49.00
2018-01-26T04:17:02.873Z,48.90
2018-01-26T04:19:30.367Z,48.90
2018-01-26T04:21:56.962Z,48.90
2018-01-26T04:24:23.601Z,48.90
2018-01-26T04:26:50.169Z,48.80
2018-01-26T04:29:17.538Z,48.50
2018-01-26T04:31:44.131Z,48.40
2018-01-26T04:34:10.710Z,48.90
2018-01-26T04:36:38.054Z,48.90
2018-01-26T04:39:05.361Z,48.80
2018-01-26T04:41:31.974Z,48.80
2018-01-26T04:43:58.566Z,48.20
2018-01-26T04:46:25.917Z,48.10
2018-01-26T04:48:52.489Z,47.90
2018-01-26T04:51:19.058Z,47.70
2018-01-26T04:53:45.690Z,47.50
2018-01-26T04:56:12.246Z,47.00
2018-01-26T04:58:38.903Z,47.20
2018-01-26T05:01:05.485Z,47.40
2018-01-26T05:03:32.094Z,48.80
2018-01-26T05:05:59.434Z,48.90
2018-01-26T05:08:26.005Z,48.80
2018-01-26T05:10:52.636Z,48.90
2018-01-26T05:13:20.175Z,51.00
2018-01-26T05:15:46.778Z,50.40
2018-01-26T05:18:13.432Z,50.50
2018-01-26T05:20:40.019Z,50.60
2018-01-26T05:23:06.659Z,50.90
2018-01-26T05:25:33.274Z,50.90
2018-01-26T05:27:59.878Z,51.00
2018-01-26T05:30:26.486Z,50.80
2018-01-26T05:32:53.082Z,50.90
2018-01-26T05:35:19.748Z,51.90
2018-01-26T05:37:46.366Z,52.50
2018-01-26T05:40:12.934Z,53.50
2018-01-26T05:42:39.598Z,54.00
2018-01-26T05:45:07.052Z,54.90
2018-01-26T05:47:33.706Z,54.90
2018-01-26T05:50:00.465Z,54.80
2018-01-26T05:52:27.085Z,55.00
2018-01-26T05:54:53.739Z,54.80
2018-01-26T05:57:20.351Z,54.80
2018-01-26T05:59:46.909Z,55.00
2018-01-26T06:02:14.263Z,55.10
2018-01-26T06:04:41.569Z,54.80
2018-01-26T06:07:08.154Z,54.80
2018-01-26T06:09:35.515Z,55.20
2018-01-26T06:12:02.081Z,55.20
2018-01-26T06:14:28.724Z,55.10
2018-01-26T06:16:55.350Z,55.10
2018-01-26T06:19:21.949Z,54.70
2018-01-26T06:21:49.324Z,54.80
2018-01-26T06:24:15.958Z,54.70
2018-01-26T06:26:43.099Z,54.50
2018-01-26T06:29:10.431Z,54.80
2018-01-26T06:31:37.263Z,54.70
2018-01-26T06:34:03.874Z,55.50
2018-01-26T06:36:30.534Z,55.60
2018-01-26T06:38:57.262Z,55.50
2018-01-26T06:41:23.837Z,54.60
2018-01-26T06:43:50.414Z,54.80
2018-01-26T06:46:17.085Z,54.40
2018-01-26T06:48:43.669Z,53.40
2018-01-26T06:51:10.243Z,53.90
2018-01-26T06:53:36.917Z,54.50
2018-01-26T06:56:04.360Z,55.40
2018-01-26T06:58:31.027Z,55.20
2018-01-26T07:00:57.661Z,54.30
2018-01-26T07:03:24.246Z,53.40
2018-01-26T07:05:50.827Z,53.30
2018-01-26T07:08:17.450Z,54.20
2018-01-26T07:10:44.037Z,54.90
2018-01-26T07:13:10.742Z,55.00
2018-01-26T07:15:37.476Z,54.20
2018-01-26T07:18:04.250Z,54.20
2018-01-26T07:20:30.858Z,54.60
2018-01-26T07:22:58.186Z,56.00
2018-01-26T07:25:24.785Z,55.90
2018-01-26T07:27:51.391Z,55.90
2018-01-26T07:30:18.726Z,56.20
2018-01-26T07:32:46.060Z,56.10
2018-01-26T07:35:12.638Z,55.90
2018-01-26T07:37:39.998Z,55.60
2018-01-26T07:40:06.607Z,55.60
2018-01-26T07:42:33.921Z,53.70
2018-01-26T07:45:00.552Z,53.60
2018-01-26T07:47:27.146Z,53.40
2018-01-26T07:49:54.515Z,53.80
2018-01-26T07:52:21.098Z,53.70
2018-01-26T07:54:47.706Z,54.40
2018-01-26T07:57:14.279Z,53.40
2018-01-26T07:59:41.646Z,54.30
2018-01-26T08:02:08.686Z,54.30
2018-01-26T08:04:35.428Z,55.00
2018-01-26T08:07:02.038Z,54.10
2018-01-26T08:09:28.644Z,53.30
2018-01-26T08:11:55.286Z,53.30
2018-01-26T08:14:22.673Z,54.10
2018-01-26T08:16:49.275Z,54.10
2018-01-26T08:19:15.844Z,54.60
2018-01-26T08:21:43.310Z,54.30
2018-01-26T08:24:09.906Z,54.20
2018-01-26T08:26:36.474Z,54.70
2018-01-26T08:29:03.132Z,55.30
2018-01-26T08:31:29.782Z,55.50
2018-01-26T08:33:56.359Z,56.00
2018-01-26T08:36:22.979Z,55.90
2018-01-26T08:38:49.553Z,56.00
2018-01-26T08:41:16.120Z,56.10
2018-01-26T08:43:42.729Z,56.20
2018-01-26T08:46:10.045Z,56.00
2018-01-26T08:48:36.927Z,55.90
2018-01-26T08:51:03.592Z,55.90
2018-01-26T08:53:30.254Z,55.50
2018-01-26T08:55:57.630Z,55.20
2018-01-26T08:58:24.190Z,55.20
2018-01-26T09:00:50.828Z,55.20
2018-01-26T09:03:17.465Z,55.20
2018-01-26T09:05:44.165Z,55.60
2018-01-26T09:08:11.596Z,54.00
2018-01-26T09:10:38.162Z,54.00
2018-01-26T09:13:04.757Z,52.60
2018-01-26T09:15:31.467Z,51.50
2018-01-26T09:17:58.077Z,51.00
2018-01-26T09:20:24.663Z,50.10
2018-01-26T09:22:51.276Z,49.50
2018-01-26T09:25:17.840Z,48.50
2018-01-26T09:27:44.465Z,48.70
2018-01-26T09:30:11.226Z,48.00
2018-01-26T09:32:37.826Z,47.40
2018-01-26T09:35:04.506Z,48.30
2018-01-26T09:37:31.084Z,48.80
2018-01-26T09:39:57.698Z,49.20
2018-01-26T09:42:24.309Z,50.10
2018-01-26T09:44:50.931Z,50.20
2018-01-26T09:47:17.498Z,50.30
2018-01-26T09:49:44.059Z,50.60
2018-01-26T09:52:10.667Z,51.10
2018-01-26T09:54:38.025Z,52.70
2018-01-26T09:57:04.625Z,51.90
2018-01-26T09:59:31.184Z,52.20
2018-01-26T10:01:57.784Z,52.00
2018-01-26T10:04:24.521Z,53.20
2018-01-26T10:06:51.163Z,51.80
2018-01-26T10:09:17.738Z,50.60
2018-01-26T10:11:44.318Z,50.80
2018-01-26T10:14:10.943Z,51.00
2018-01-26T10:16:37.534Z,50.60
2018-01-26T10:19:04.213Z,51.10
2018-01-26T10:21:31.554Z,51.60
2018-01-26T10:23:58.123Z,51.50
2018-01-26T10:26:24.767Z,51.50
2018-01-26T10:28:51.368Z,51.30
2018-01-26T10:31:18.742Z,51.60
2018-01-26T10:33:45.371Z,51.60
2018-01-26T10:36:11.951Z,52.00
2018-01-26T10:38:38.566Z,52.30
2018-01-26T10:41:05.142Z,52.40
2018-01-26T10:43:31.699Z,52.80
2018-01-26T10:45:59.079Z,52.40
2018-01-26T10:48:25.678Z,52.30
2018-01-26T10:50:52.266Z,52.60
2018-01-26T10:53:18.902Z,52.10
2018-01-26T10:55:45.485Z,52.80
2018-01-26T10:58:12.079Z,53.00
2018-01-26T11:00:38.674Z,52.90
2018-01-26T11:03:06.027Z,52.90
2018-01-26T11:05:33.359Z,53.10
2018-01-26T11:08:00.110Z,53.10
2018-01-26T11:10:26.685Z,53.30
2018-01-26T11:12:53.292Z,53.00
2018-01-26T11:15:19.876Z,53.20
2018-01-26T11:17:46.498Z,53.90
2018-01-26T11:20:13.099Z,54.20
2018-01-26T11:22:39.775Z,53.80
2018-01-26T11:25:06.379Z,53.10
2018-01-26T11:27:33.715Z,54.20
2018-01-26T11:30:00.351Z,54.10
2018-01-26T11:32:26.963Z,53.90
2018-01-26T11:34:53.634Z,53.70
2018-01-26T11:37:20.237Z,53.50
2018-01-26T11:39:46.826Z,53.50
2018-01-26T11:42:13.454Z,53.20
2018-01-26T11:44:40.789Z,53.20
2018-01-26T11:47:07.357Z,53.10
2018-01-26T11:49:33.949Z,52.80
2018-01-26T11:52:00.578Z,53.10
2018-01-26T11:54:27.214Z,53.00
2018-01-26T11:56:53.901Z,52.50
2018-01-26T11:59:21.224Z,50.70
2018-01-26T12:01:47.786Z,50.70
2018-01-26T12:04:15.218Z,49.90
2018-01-26T12:06:41.898Z,49.80
2018-01-26T12:09:08.482Z,49.30
2018-01-26T12:11:35.091Z,48.60
2018-01-26T12:14:01.737Z,47.80
2018-01-26T12:16:28.332Z,47.90
2018-01-26T12:18:55.704Z,47.60
2018-01-26T12:21:22.314Z,47.60
2018-01-26T12:23:48.930Z,47.40
2018-01-26T12:26:15.575Z,47.70
2018-01-26T12:28:42.198Z,47.30
2018-01-26T12:31:08.822Z,47.80
2018-01-26T12:33:35.407Z,48.10
2018-01-26T12:36:02.032Z,48.40
2018-01-26T12:38:29.362Z,49.00
2018-01-26T12:40:55.998Z,49.00
2018-01-26T12:43:22.604Z,48.80
2018-01-26T12:45:49.280Z,48.70
2018-01-26T12:48:15.878Z,48.50
2018-01-26T12:50:42.484Z,48.80
2018-01-26T12:53:09.839Z,49.00
2018-01-26T12:55:37.237Z,49.00
2018-01-26T12:58:03.881Z,49.00
2018-01-26T13:00:31.150Z,49.80
2018-01-26T13:02:57.907Z,50.20
2018-01-26T13:05:24.509Z,50.40
2018-01-26T13:07:51.113Z,50.80
2018-01-26T13:10:18.205Z,50.40
2018-01-26T13:12:44.827Z,50.40
2018-01-26T13:15:11.398Z,50.70
2018-01-26T13:17:38.004Z,51.50
2018-01-26T13:20:04.666Z,52.20
2018-01-26T13:22:31.320Z,52.20
2018-01-26T13:24:58.685Z,51.90
2018-01-26T13:27:26.054Z,52.30
2018-01-26T13:29:52.642Z,52.30
2018-01-26T13:32:19.265Z,51.50
2018-01-26T13:34:45.857Z,51.80
2018-01-26T13:37:13.234Z,51.80
2018-01-26T13:39:39.834Z,51.70
2018-01-26T13:42:07.310Z,50.60
2018-01-26T13:44:34.758Z,50.60
2018-01-26T13:47:01.475Z,50.50
2018-01-26T13:49:28.169Z,50.50
2018-01-26T13:51:54.891Z,51.60
2018-01-26T13:54:21.488Z,51.60
2018-01-26T13:56:48.067Z,51.90
2018-01-26T13:59:14.782Z,52.00
2018-01-26T14:01:41.429Z,52.20
2018-01-26T14:04:08.771Z,52.10
2018-01-26T14:06:35.407Z,52.10
2018-01-26T14:09:02.123Z,52.50
2018-01-26T14:11:28.772Z,52.10
2018-01-26T14:13:55.410Z,52.80
2018-01-26T14:16:22.758Z,52.70
2018-01-26T14:18:50.705Z,52.90
2018-01-26T14:21:17.320Z,52.80
2018-01-26T14:23:43.934Z,53.10
2018-01-26T14:26:10.550Z,53.10
2018-01-26T14:28:37.139Z,53.90
2018-01-26T14:31:03.838Z,54.00
2018-01-26T14:33:30.438Z,53.90
2018-01-26T14:35:57.138Z,54.40
2018-01-26T14:38:23.759Z,54.30
2018-01-26T14:40:50.413Z,54.40
2018-01-26T14:43:17.012Z,54.50
2018-01-26T14:45:44.394Z,54.80
2018-01-26T14:48:11.007Z,54.80
2018-01-26T14:50:38.396Z,54.40
2018-01-26T14:53:05.037Z,54.40
2018-01-26T14:55:31.723Z,54.40
2018-01-26T14:57:58.318Z,54.50
2018-01-26T15:00:25.034Z,54.40
2018-01-26T15:02:51.668Z,54.40
2018-01-26T15:05:18.275Z,54.40
2018-01-26T15:07:45.683Z,54.40
2018-01-26T15:10:12.390Z,54.30
2018-01-26T15:12:39.825Z,55.10
2018-01-26T15:15:06.420Z,55.10
2018-01-26T15:17:33.118Z,55.10
2018-01-26T15:20:00.473Z,54.50
2018-01-26T15:22:27.841Z,54.40
2018-01-26T15:24:55.284Z,54.20
2018-01-26T15:27:22.737Z,54.30
2018-01-26T15:29:50.098Z,54.20
2018-01-26T15:32:17.583Z,54.20
2018-01-26T15:34:44.202Z,54.30
2018-01-26T15:37:11.619Z,54.70
2018-01-26T15:39:38.204Z,54.70
2018-01-26T15:42:04.859Z,54.20
2018-01-26T15:44:31.492Z,54.10
2018-01-26T15:46:58.151Z,54.20
2018-01-26T15:49:24.734Z,54.10
2018-01-26T15:51:51.402Z,54.30
2018-01-26T15:54:18.041Z,55.00
2018-01-26T15:56:44.774Z,55.30
2018-01-26T15:59:11.387Z,55.30
2018-01-26T16:01:38.780Z,56.00
2018-01-26T16:04:05.363Z,55.90
2018-01-26T16:06:32.791Z,56.90
2018-01-26T16:08:59.427Z,56.80
2018-01-26T16:11:26.106Z,57.10
2018-01-26T16:13:52.783Z,56.80
2018-01-26T16:16:19.541Z,56.90
2018-01-26T16:18:46.166Z,56.90
2018-01-26T16:21:12.770Z,57.20
2018-01-26T16:23:39.423Z,57.30
2018-01-26T16:26:06.056Z,57.60
2018-01-26T16:28:33.599Z,57.90
2018-01-26T16:31:00.263Z,57.90
2018-01-26T16:33:27.061Z,57.20
2018-01-26T16:35:54.520Z,57.80
2018-01-26T16:38:21.182Z,57.80
2018-01-26T16:40:47.897Z,58.40
2018-01-26T16:43:14.562Z,58.30
2018-01-26T16:45:41.919Z,59.20
2018-01-26T16:48:08.630Z,59.20
2018-01-26T16:50:35.283Z,60.70
2018-01-26T16:53:01.975Z,61.00
2018-01-26T16:55:28.603Z,61.30
2018-01-26T16:57:55.452Z,62.00
2018-01-26T17:00:22.166Z,62.10
2018-01-26T17:02:48.861Z,62.80
2018-01-26T17:05:15.663Z,62.80
2018-01-26T17:07:42.351Z,62.60
2018-01-26T17:10:09.680Z,62.60
2018-01-26T17:12:36.311Z,62.50
2018-01-26T17:15:02.928Z,62.50
2018-01-26T17:17:29.570Z,62.80
2018-01-26T17:19:56.154Z,63.10
2018-01-26T17:22:22.737Z,62.60
2018-01-26T17:24:50.199Z,62.50
2018-01-26T17:27:16.921Z,62.50
2018-01-26T17:29:43.564Z,62.50
2018-01-26T17:32:10.154Z,62.50
2018-01-26T17:34:36.906Z,62.50
2018-01-26T17:37:04.375Z,61.70
2018-01-26T17:39:31.731Z,62.00
2018-01-26T17:41:58.362Z,62.00
2018-01-26T17:44:25.024Z,62.40
2018-01-26T17:46:52.375Z,62.90
2018-01-26T17:49:18.982Z,62.90
2018-01-26T17:51:46.382Z,63.50
2018-01-26T17:54:13.089Z,63.40
2018-01-26T17:56:40.463Z,63.90
2018-01-26T17:59:07.126Z,63.80
2018-01-26T18:01:34.556Z,64.50
2018-01-26T18:04:01.242Z,63.70
2018-01-26T18:06:27.918Z,64.20
2018-01-26T18:08:54.536Z,64.40
2018-01-26T18:11:21.910Z,65.10
2018-01-26T18:13:48.522Z,65.10
2018-01-26T18:16:15.286Z,65.20
2018-01-26T18:18:41.883Z,65.30
2018-01-26T18:21:08.508Z,64.90
2018-01-26T18:23:36.051Z,65.90
2018-01-26T18:26:02.760Z,65.80
2018-01-26T18:28:29.398Z,66.10
2018-01-26T18:30:56.773Z,66.10
2018-01-26T18:33:23.409Z,65.90
2018-01-26T18:35:50.723Z,66.80
2018-01-26T18:38:18.114Z,65.90
2018-01-26T18:40:44.742Z,65.70
2018-01-26T18:43:11.322Z,65.60
2018-01-26T18:45:37.970Z,65.10
2018-01-26T18:48:04.663Z,65.70
2018-01-26T18:50:31.380Z,65.30
2018-01-26T18:52:58.782Z,66.70
2018-01-26T18:55:25.414Z,66.70
2018-01-26T18:57:51.999Z,66.60
2018-01-26T19:00:19.393Z,66.70
2018-01-26T19:02:46.039Z,66.60
2018-01-26T19:05:12.647Z,66.70
2018-01-26T19:07:39.354Z,67.10
2018-01-26T19:10:05.958Z,66.70
2018-01-26T19:12:33.376Z,66.70
2018-01-26T19:14:59.981Z,66.70
2018-01-26T19:17:26.650Z,66.60
2018-01-26T19:19:53.988Z,66.30
2018-01-26T19:22:21.382Z,66.60
2018-01-26T19:24:48.027Z,66.50
2018-01-26T19:27:14.694Z,66.50
2018-01-26T19:29:41.420Z,66.70
2018-01-26T19:32:08.130Z,66.60
2018-01-26T19:34:36.947Z,66.20
2018-01-26T19:37:03.651Z,66.10
2018-01-26T19:39:30.406Z,66.10
2018-01-26T19:41:57.040Z,66.40
2018-01-26T19:44:23.757Z,66.40
2018-01-26T19:46:50.393Z,66.70
2018-01-26T19:49:17.738Z,66.50
2018-01-26T19:51:45.081Z,66.80
2018-01-26T19:54:11.748Z,66.80
2018-01-26T19:56:38.354Z,66.40
2018-01-26T19:59:05.744Z,67.00
2018-01-26T20:01:32.427Z,66.30
2018-01-26T20:04:03.683Z,66.40
2018-01-26T20:06:55.591Z,66.50
2018-01-26T20:09:25.163Z,66.40
2018-01-26T20:11:58.718Z,66.40
2018-01-26T20:14:25.417Z,67.00
2018-01-26T20:16:52.089Z,67.10
2018-01-26T20:19:18.776Z,67.50
2018-01-26T20:21:45.466Z,67.50
2018-01-26T20:24:12.881Z,67.00
2018-01-26T20:26:39.571Z,67.00
2018-01-26T20:29:06.199Z,67.00
2018-01-26T20:31:32.814Z,67.00
2018-01-26T20:34:00.308Z,67.60
2018-01-26T20:36:26.890Z,67.50
2018-01-26T20:38:53.594Z,67.80
2018-01-26T20:41:20.237Z,67.60
2018-01-26T20:43:46.860Z,67.60
2018-01-26T20:46:14.315Z,67.10
2018-01-26T20:48:40.894Z,67.00
2018-01-26T20:51:07.631Z,67.10
2018-01-26T20:53:34.258Z,67.40
2018-01-26T20:56:00.945Z,67.60
2018-01-26T20:58:27.594Z,68.20
2018-01-26T21:00:54.390Z,68.00
2018-01-26T21:03:21.036Z,67.80
2018-01-26T21:05:47.658Z,67.70
2018-01-26T21:08:14.265Z,67.70
2018-01-26T21:10:40.905Z,68.00
2018-01-26T21:13:07.522Z,67.70
2018-01-26T21:15:34.195Z,67.50
2018-01-26T21:18:00.850Z,68.10
2018-01-26T21:20:27.424Z,68.60
2018-01-26T21:22:54.055Z,68.80
2018-01-26T21:25:20.670Z,68.80
2018-01-26T21:27:47.287Z,69.00
2018-01-26T21:30:13.909Z,68.60
2018-01-26T21:32:40.542Z,68.20
2018-01-26T21:35:07.976Z,68.40
2018-01-26T21:37:35.527Z,68.70
2018-01-26T21:40:02.137Z,68.70
2018-01-26T21:42:28.760Z,68.80
2018-01-26T21:44:55.390Z,68.40
2018-01-26T21:47:21.992Z,68.50
2018-01-26T21:49:48.651Z,68.90
2018-01-26T21:52:16.035Z,68.90
2018-01-26T21:54:42.655Z,68.80
2018-01-26T21:57:09.259Z,68.60
2018-01-26T21:59:35.900Z,68.50
2018-01-26T22:02:02.551Z,68.80
2018-01-26T22:04:35.182Z,68.40
2018-01-26T22:07:07.919Z,68.60
2018-01-26T22:09:34.569Z,68.90
2018-01-26T22:12:01.171Z,68.50
2018-01-26T22:14:27.943Z,68.60
2018-01-26T22:16:54.571Z,68.90
2018-01-26T22:19:21.162Z,68.70
2018-01-26T22:21:47.782Z,68.90
2018-01-26T22:24:14.415Z,69.20
2018-01-26T22:26:41.082Z,69.70
2018-01-26T22:29:07.699Z,69.50
2018-01-26T22:31:34.282Z,69.60
2018-01-26T22:34:01.636Z,70.00
2018-01-26T22:36:28.286Z,70.00
2018-01-26T22:38:54.907Z,69.60
2018-01-26T22:41:21.502Z,69.60
2018-01-26T22:43:48.147Z,69.10
2018-01-26T22:46:14.726Z,69.00
2018-01-26T22:48:41.398Z,69.10
2018-01-26T22:51:08.006Z,69.50
2018-01-26T22:53:34.598Z,69.40
2018-01-26T22:56:01.181Z,70.10
2018-01-26T22:58:27.768Z,70.50
2018-01-26T23:00:54.468Z,70.20
2018-01-26T23:03:21.126Z,70.40
2018-01-26T23:05:47.790Z,70.00
2018-01-26T23:08:14.425Z,69.40
2018-01-26T23:10:41.180Z,69.40
2018-01-26T23:13:07.790Z,69.00
2018-01-26T23:15:34.443Z,69.10
2018-01-26T23:18:01.057Z,69.50
2018-01-26T23:20:27.682Z,70.00
2018-01-26T23:22:54.336Z,70.30
2018-01-26T23:25:20.957Z,70.10
2018-01-26T23:27:47.616Z,70.00
2018-01-26T23:30:14.214Z,70.00
2018-01-26T23:32:41.755Z,70.10
2018-01-26T23:35:08.391Z,69.60
2018-01-26T23:37:34.988Z,69.30
2018-01-26T23:40:01.601Z,69.50
2018-01-26T23:42:28.206Z,69.80
2018-01-26T23:44:54.833Z,69.70
2018-01-26T23:47:21.469Z,69.50
2018-01-26T23:49:48.105Z,69.70
2018-01-26T23:52:14.700Z,69.20
2018-01-26T23:54:41.312Z,69.60
2018-01-26T23:57:07.906Z,70.90
2018-01-26T23:59:34.567Z,70.60
